Hauptseite
METAR-TAF:

METAR-TAF

Flughäfen :

Flughafen Ohrid

Ohrid, Mazedonien

Breite: 41-07N, Länge: 020-48E, Höhe: 760 m

Beobachtung

Neuester Wetterbericht von vor 2 Stunden und 27 Minuten, um 15:00 UTC
Wind 7 kt aus Nord
Temperatur 16°C
Luftfeuchtigkeit 34%
Luftdruck 1010 hPa
Sichtweite 10 km oder mehr
Aufgelockert bewölkt in der Höhe von 5000 ft

METAR: LWOH 301500Z 35007KT 9999 SCT050 16/M00 Q1010

Zeit: 19:27 (17:27 UTC)

Prognose

Neuester Wetterbericht von vor 2 Stunden und 57 Minuten, um 14:30 UTC
Gültige Prognose vom 30 um 15 UTC bis 31 um 16 UTC
Wind 2 kt aus unterschiedlichen Richtungen
Sichtweite 10 km oder mehr
Aufgelockert bewölkt in der Höhe von 5000 ft

TAF: LWOH 301430Z 3015/3116 VRB02KT 9999 SCT050

Wetterbeobachtungen und Prognosen von mehr als 4000 Flughäfen (METAR und TAF Bericht).

Die verfügbaren Stationen werden durch gelbe und rote Markierungen auf der Karte dargestellt.

Führen Sie die Maus auf sie, um den Namen der Station zu sehen.

Darauf klicken, um die Beobachtung von Wetterbeobachtungen und Prognosen zu sehen.

Um die Karte zu ändern : klicken Sie auf den grünen Tasten mit einem schwarzen Kreuz Zum Vergrößern, auf den grünen Button mit einem Gedankenstrich zu verkleinern, oder auf die grünen Pfeile für benachbarte Karten.


METAR-TAF: